createdAt,value
2022-10-11T03:58:48.052Z,499.00
2022-10-11T03:59:49.771Z,474.00
2022-10-11T04:00:48.310Z,470.00
2022-10-11T04:01:48.456Z,474.00
2022-10-11T04:02:48.587Z,474.00
2022-10-11T04:03:48.710Z,475.00
2022-10-11T04:04:49.932Z,471.00
2022-10-11T04:05:48.979Z,471.00
2022-10-11T04:06:49.061Z,470.00
2022-10-11T04:07:49.221Z,468.00
2022-10-11T04:08:50.327Z,467.00
2022-10-11T04:09:51.123Z,467.00
2022-10-11T04:10:49.662Z,467.00
2022-10-11T04:11:51.388Z,468.00
2022-10-11T04:12:51.628Z,468.00
2022-10-11T04:13:50.018Z,465.00
2022-10-11T04:14:50.158Z,465.00
2022-10-11T04:15:51.917Z,465.00
2022-10-11T04:16:50.457Z,462.00
2022-10-11T04:17:52.252Z,462.00
2022-10-11T04:18:50.778Z,463.00
2022-10-11T04:19:52.511Z,463.00
2022-10-11T04:20:51.120Z,461.00
2022-10-11T04:21:52.825Z,460.00
2022-10-11T04:22:51.346Z,460.00
2022-10-11T04:23:53.059Z,461.00
2022-10-11T04:24:53.278Z,461.00
2022-10-11T04:25:53.536Z,461.00
2022-10-11T04:26:51.897Z,462.00
2022-10-11T04:27:53.694Z,463.00
2022-10-11T04:28:53.246Z,462.00
2022-10-11T04:29:53.268Z,463.00
2022-10-11T04:30:53.988Z,464.00
2022-10-11T04:31:54.220Z,466.00
2022-10-11T04:32:52.684Z,466.00
2022-10-11T04:33:54.402Z,466.00
2022-10-11T04:34:53.007Z,465.00
2022-10-11T04:35:54.743Z,463.00
2022-10-11T04:36:54.965Z,462.00
2022-10-11T04:37:53.438Z,464.00
2022-10-11T04:38:54.584Z,463.00
2022-10-11T04:39:53.704Z,463.00
2022-10-11T04:40:55.446Z,465.00
2022-10-11T04:41:53.972Z,466.00
2022-10-11T04:42:55.720Z,465.00
2022-10-11T04:43:55.275Z,465.00
2022-10-11T04:44:56.011Z,464.00
2022-10-11T04:45:55.595Z,460.00
2022-10-11T04:46:56.297Z,460.00
2022-10-11T04:47:56.492Z,459.00
2022-10-11T04:48:54.962Z,458.00
2022-10-11T04:49:56.689Z,459.00
2022-10-11T04:50:55.258Z,459.00
2022-10-11T04:51:56.971Z,457.00
2022-10-11T04:52:57.215Z,457.00
2022-10-11T04:53:56.636Z,459.00
2022-10-11T04:54:57.353Z,462.00
2022-10-11T04:55:57.556Z,463.00
2022-10-11T04:56:56.046Z,463.00
2022-10-11T04:57:57.807Z,467.00
2022-10-11T04:58:58.043Z,464.00
2022-10-11T04:59:56.432Z,464.00
2022-10-11T05:00:56.613Z,463.00
2022-10-11T05:01:56.825Z,461.00
2022-10-11T05:02:58.493Z,461.00
2022-10-11T05:04:00.180Z,459.00
2022-10-11T05:04:57.137Z,456.00
2022-10-11T05:05:58.006Z,457.00
2022-10-11T05:06:57.397Z,460.00
2022-10-11T05:07:59.124Z,463.00
2022-10-11T05:08:57.741Z,462.00
2022-10-11T05:09:57.858Z,460.00
2022-10-11T05:10:57.915Z,461.00
2022-10-11T05:11:58.059Z,459.00
2022-10-11T05:12:59.803Z,459.00
2022-10-11T05:14:00.045Z,461.00
2022-10-11T05:14:58.462Z,460.00
2022-10-11T05:16:00.184Z,459.00
2022-10-11T05:17:00.424Z,458.00
2022-10-11T05:18:00.666Z,457.00
2022-10-11T05:19:00.868Z,458.00
2022-10-11T05:19:59.155Z,456.00
2022-10-11T05:21:00.893Z,454.00
2022-10-11T05:22:01.110Z,456.00
2022-10-11T05:23:01.359Z,455.00
2022-10-11T05:24:01.626Z,456.00
2022-10-11T05:25:01.863Z,456.00
2022-10-11T05:26:01.786Z,455.00
2022-10-11T05:27:03.570Z,453.00
2022-10-11T05:28:02.070Z,452.00
2022-10-11T05:29:02.353Z,454.00
2022-10-11T05:30:01.509Z,455.00
2022-10-11T05:31:02.248Z,457.00
2022-10-11T05:32:02.499Z,459.00
2022-10-11T05:33:02.718Z,459.00
2022-10-11T05:34:02.945Z,461.00
2022-10-11T05:35:02.676Z,463.00
2022-10-11T05:36:03.260Z,463.00
2022-10-11T05:37:03.125Z,462.00
2022-10-11T05:38:03.371Z,463.00
2022-10-11T05:39:01.684Z,459.00
2022-10-11T05:40:02.005Z,459.00
2022-10-11T05:41:02.980Z,460.00
2022-10-11T05:42:08.954Z,461.00
2022-10-11T05:43:04.276Z,461.00
2022-10-11T05:44:03.974Z,461.00
2022-10-11T05:45:04.244Z,459.00
2022-10-11T05:46:03.946Z,457.00
2022-10-11T05:47:02.790Z,455.00
2022-10-11T05:48:04.004Z,457.00
2022-10-11T05:49:03.112Z,457.00
2022-10-11T05:50:06.300Z,456.00
2022-10-11T05:51:03.552Z,457.00
2022-10-11T05:52:03.522Z,460.00
2022-10-11T05:53:03.703Z,461.00
2022-10-11T05:54:03.821Z,462.00
2022-10-11T05:55:05.304Z,464.00
2022-10-11T05:56:04.314Z,463.00
2022-10-11T05:57:04.223Z,461.00
2022-10-11T05:58:04.566Z,459.00
2022-10-11T05:59:06.835Z,458.00
2022-10-11T06:00:06.391Z,460.00
2022-10-11T06:01:07.161Z,461.00
2022-10-11T06:02:06.540Z,461.00
2022-10-11T06:03:04.983Z,461.00
2022-10-11T06:04:06.710Z,461.00
2022-10-11T06:05:07.164Z,463.00
2022-10-11T06:06:07.303Z,463.00
2022-10-11T06:07:07.454Z,461.00
2022-10-11T06:08:05.590Z,464.00
2022-10-11T06:09:06.483Z,465.00
2022-10-11T06:10:06.642Z,465.00
2022-10-11T06:11:10.193Z,464.00
2022-10-11T06:12:08.878Z,464.00
2022-10-11T06:13:06.281Z,462.00
2022-10-11T06:14:06.401Z,464.00
2022-10-11T06:15:08.143Z,462.00
2022-10-11T06:16:07.303Z,460.00
2022-10-11T06:17:08.405Z,463.00
2022-10-11T06:18:08.690Z,464.00
2022-10-11T06:19:08.923Z,463.00
2022-10-11T06:20:08.743Z,466.00
2022-10-11T06:21:08.970Z,466.00
2022-10-11T06:22:09.222Z,465.00
2022-10-11T06:23:07.599Z,463.00
2022-10-11T06:24:09.388Z,462.00
2022-10-11T06:25:08.921Z,461.00
2022-10-11T06:26:08.902Z,462.00
2022-10-11T06:27:08.129Z,463.00
2022-10-11T06:28:08.321Z,462.00
2022-10-11T06:29:10.565Z,463.00
2022-10-11T06:30:09.778Z,464.00
2022-10-11T06:31:10.044Z,464.00
2022-10-11T06:32:10.309Z,466.00
2022-10-11T06:33:10.639Z,467.00
2022-10-11T06:34:10.866Z,466.00
2022-10-11T06:35:11.027Z,465.00
2022-10-11T06:36:10.827Z,463.00
2022-10-11T06:37:11.058Z,465.00
2022-10-11T06:38:11.336Z,466.00
2022-10-11T06:39:12.536Z,467.00
2022-10-11T06:40:12.787Z,467.00
2022-10-11T06:41:12.606Z,467.00
2022-10-11T06:42:10.076Z,464.00
2022-10-11T06:43:10.977Z,465.00
2022-10-11T06:44:14.200Z,466.00
2022-10-11T06:45:10.498Z,467.00
2022-10-11T06:46:10.668Z,467.00
2022-10-11T06:47:10.855Z,465.00
2022-10-11T06:48:13.568Z,464.00
2022-10-11T06:49:13.065Z,464.00
2022-10-11T06:50:12.817Z,462.00
2022-10-11T06:51:14.581Z,461.00
2022-10-11T06:52:12.456Z,460.00
2022-10-11T06:53:13.158Z,460.00
2022-10-11T06:54:13.398Z,459.00
2022-10-11T06:55:13.155Z,460.00
2022-10-11T06:56:14.884Z,463.00
2022-10-11T06:57:13.739Z,463.00
2022-10-11T06:58:13.966Z,463.00
2022-10-11T06:59:14.204Z,464.00
2022-10-11T07:00:14.455Z,466.00
2022-10-11T07:01:14.781Z,468.00
2022-10-11T07:02:14.567Z,468.00
2022-10-11T07:03:14.843Z,467.00
2022-10-11T07:04:15.106Z,468.00
2022-10-11T07:05:13.353Z,468.00
2022-10-11T07:06:13.425Z,466.00
2022-10-11T07:07:15.198Z,464.00
2022-10-11T07:08:15.466Z,463.00
2022-10-11T07:09:15.774Z,463.00
2022-10-11T07:10:17.412Z,465.00
2022-10-11T07:11:14.104Z,466.00
2022-10-11T07:12:14.231Z,467.00
2022-10-11T07:13:17.315Z,466.00
2022-10-11T07:14:14.513Z,466.00
2022-10-11T07:15:14.670Z,466.00
2022-10-11T07:16:16.441Z,467.00
2022-10-11T07:17:15.853Z,465.00
2022-10-11T07:18:16.010Z,466.00
2022-10-11T07:19:16.785Z,465.00
2022-10-11T07:20:15.260Z,464.00
2022-10-11T07:21:17.051Z,462.00
2022-10-11T07:22:16.549Z,461.00
2022-10-11T07:23:16.126Z,461.00
2022-10-11T07:24:18.186Z,460.00
2022-10-11T07:25:16.907Z,459.00
2022-10-11T07:26:17.680Z,460.00
2022-10-11T07:27:16.911Z,463.00
2022-10-11T07:28:18.127Z,466.00
2022-10-11T07:29:18.278Z,467.00
2022-10-11T07:30:18.553Z,467.00
2022-10-11T07:31:17.721Z,466.00
2022-10-11T07:32:17.116Z,467.00
2022-10-11T07:33:18.929Z,465.00
2022-10-11T07:34:17.184Z,465.00
2022-10-11T07:35:17.248Z,466.00
2022-10-11T07:36:19.869Z,469.00
2022-10-11T07:37:24.934Z,466.00
2022-10-11T07:38:18.208Z,466.00
2022-10-11T07:39:17.828Z,466.00
2022-10-11T07:40:18.390Z,464.00
2022-10-11T07:41:23.892Z,464.00
2022-10-11T07:42:20.769Z,464.00
2022-10-11T07:43:18.420Z,465.00
2022-10-11T07:44:20.416Z,465.00
2022-10-11T07:45:18.711Z,466.00
2022-10-11T07:46:19.743Z,466.00
2022-10-11T07:47:20.465Z,468.00
2022-10-11T07:48:30.902Z,469.00
2022-10-11T07:49:20.795Z,468.00
2022-10-11T07:50:19.389Z,471.00
2022-10-11T07:51:21.037Z,471.00
2022-10-11T07:52:19.608Z,471.00
2022-10-11T07:53:19.766Z,475.00
2022-10-11T07:54:19.855Z,473.00
2022-10-11T07:55:22.733Z,471.00
2022-10-11T07:56:20.342Z,468.00
2022-10-11T07:57:22.556Z,471.00
2022-10-11T07:58:20.554Z,470.00
2022-10-11T07:59:21.563Z,470.00
2022-10-11T08:00:21.432Z,471.00
2022-10-11T08:01:29.579Z,475.00
2022-10-11T08:02:22.722Z,477.00
2022-10-11T08:03:21.906Z,476.00
2022-10-11T08:04:22.997Z,477.00
2022-10-11T08:05:22.226Z,478.00
2022-10-11T08:06:22.547Z,478.00
2022-10-11T08:07:22.290Z,478.00
2022-10-11T08:08:22.447Z,477.00
2022-10-11T08:09:22.621Z,477.00
2022-10-11T08:10:22.854Z,478.00
2022-10-11T08:11:23.245Z,481.00
2022-10-11T08:12:23.105Z,481.00
2022-10-11T08:13:24.104Z,483.00
2022-10-11T08:14:23.892Z,480.00
2022-10-11T08:15:22.733Z,479.00
2022-10-11T08:16:22.783Z,479.00
2022-10-11T08:17:22.941Z,483.00
2022-10-11T08:18:24.245Z,484.00
2022-10-11T08:19:24.984Z,487.00
2022-10-11T08:20:23.383Z,485.00
2022-10-11T08:21:23.621Z,483.00
2022-10-11T08:22:23.627Z,484.00
2022-10-11T08:23:26.352Z,482.00
2022-10-11T08:24:25.680Z,484.00
2022-10-11T08:25:27.460Z,482.00
2022-10-11T08:26:25.672Z,484.00
2022-10-11T08:27:24.999Z,482.00
2022-10-11T08:28:26.203Z,483.00
2022-10-11T08:29:27.482Z,483.00
2022-10-11T08:30:26.332Z,484.00
2022-10-11T08:31:25.215Z,484.00
2022-10-11T08:32:26.081Z,482.00
2022-10-11T08:33:25.142Z,483.00
2022-10-11T08:34:26.932Z,486.00
2022-10-11T08:35:27.270Z,484.00
2022-10-11T08:36:27.018Z,483.00
2022-10-11T08:37:26.370Z,483.00
2022-10-11T08:38:25.862Z,484.00
2022-10-11T08:39:28.540Z,482.00
2022-10-11T08:40:26.142Z,483.00
2022-10-11T08:41:30.418Z,482.00
2022-10-11T08:42:26.433Z,483.00
2022-10-11T08:43:29.083Z,482.00
2022-10-11T08:44:41.419Z,483.00
2022-10-11T08:45:27.980Z,483.00
2022-10-11T08:46:29.577Z,483.00
2022-10-11T08:47:27.179Z,484.00
2022-10-11T08:48:29.049Z,484.00
2022-10-11T08:49:28.239Z,481.00
2022-10-11T08:50:28.420Z,481.00
2022-10-11T08:51:29.904Z,479.00
2022-10-11T08:52:28.782Z,481.00
2022-10-11T08:53:30.079Z,483.00
2022-10-11T08:54:30.559Z,482.00
2022-10-11T08:55:28.943Z,482.00
2022-10-11T08:56:28.411Z,480.00
2022-10-11T08:57:28.516Z,482.00
2022-10-11T08:58:31.308Z,481.00
2022-10-11T08:59:28.748Z,480.00
2022-10-11T09:00:31.546Z,480.00
2022-10-11T09:01:29.948Z,484.00
2022-10-11T09:02:43.616Z,483.00
2022-10-11T09:03:30.988Z,483.00
2022-10-11T09:04:30.129Z,484.00
2022-10-11T09:05:32.692Z,486.00
2022-10-11T09:06:29.657Z,483.00
2022-10-11T09:07:31.367Z,483.00
2022-10-11T09:08:33.180Z,482.00
2022-10-11T09:09:32.036Z,480.00
2022-10-11T09:10:31.818Z,481.00
2022-10-11T09:11:32.128Z,478.00
2022-10-11T09:12:36.068Z,479.00
2022-10-11T09:13:33.252Z,480.00
2022-10-11T09:14:30.846Z,479.00
2022-10-11T09:15:32.579Z,479.00
2022-10-11T09:16:31.090Z,478.00
2022-10-11T09:17:32.164Z,477.00
2022-10-11T09:18:33.406Z,476.00
2022-10-11T09:19:31.564Z,476.00
2022-10-11T09:20:31.774Z,479.00
2022-10-11T09:21:33.934Z,482.00
2022-10-11T09:22:31.897Z,484.00
2022-10-11T09:23:34.765Z,487.00
2022-10-11T09:24:33.308Z,488.00
2022-10-11T09:25:32.374Z,487.00
2022-10-11T09:26:34.405Z,487.00
2022-10-11T09:28:00.836Z,486.00
2022-10-11T09:28:33.999Z,488.00
2022-10-11T09:29:43.678Z,486.00
2022-10-11T09:30:33.255Z,486.00
2022-10-11T09:31:33.304Z,485.00
2022-10-11T09:32:36.668Z,487.00
2022-10-11T09:33:33.691Z,489.00
2022-10-11T09:34:36.150Z,487.00
2022-10-11T09:35:35.591Z,490.00
2022-10-11T09:36:33.913Z,488.00
2022-10-11T09:37:35.634Z,487.00
2022-10-11T09:38:36.045Z,489.00
2022-10-11T09:39:39.280Z,487.00
2022-10-11T09:40:34.690Z,488.00
2022-10-11T09:41:37.108Z,487.00
2022-10-11T09:42:36.377Z,488.00
2022-10-11T09:43:35.993Z,488.00
2022-10-11T09:44:41.833Z,487.00
2022-10-11T09:45:36.608Z,487.00
2022-10-11T09:46:37.713Z,488.00
2022-10-11T09:47:36.135Z,486.00
2022-10-11T09:48:39.173Z,487.00
2022-10-11T09:49:38.987Z,487.00
2022-10-11T09:50:38.593Z,486.00
2022-10-11T09:51:36.003Z,486.00
2022-10-11T09:52:38.021Z,486.00
2022-10-11T09:53:36.227Z,485.00
2022-10-11T09:54:38.852Z,485.00
2022-10-11T09:55:38.400Z,487.00
2022-10-11T09:56:39.182Z,487.00
2022-10-11T09:57:36.809Z,488.00
2022-10-11T09:58:39.539Z,488.00
2022-10-11T09:59:37.075Z,487.00
2022-10-11T10:00:39.770Z,487.00
2022-10-11T10:01:40.595Z,487.00
2022-10-11T10:12:58.042Z,515.00
2022-10-11T10:13:55.773Z,506.00
2022-10-11T10:15:23.152Z,507.00
2022-10-11T10:15:58.885Z,505.00
2022-10-11T10:16:57.636Z,504.00
2022-10-11T10:18:02.058Z,503.00
2022-10-11T10:18:56.441Z,502.00
2022-10-11T10:20:00.571Z,501.00
2022-10-11T10:20:58.988Z,500.00
2022-10-11T10:21:58.345Z,502.00
2022-10-11T10:22:56.990Z,501.00
2022-10-11T10:23:58.935Z,498.00
2022-10-11T10:24:57.214Z,495.00
2022-10-11T10:26:04.323Z,495.00
2022-10-11T10:26:58.698Z,494.00
2022-10-11T10:27:57.670Z,493.00
2022-10-11T10:28:57.782Z,495.00
2022-10-11T10:29:57.901Z,497.00
2022-10-11T10:30:58.171Z,499.00
2022-10-11T10:32:13.904Z,502.00
2022-10-11T10:33:00.384Z,502.00
2022-10-11T10:34:00.213Z,501.00
2022-10-11T10:34:59.039Z,499.00
2022-10-11T10:35:58.787Z,498.00
2022-10-11T10:37:11.811Z,494.00
2022-10-11T10:37:59.807Z,492.00
2022-10-11T10:38:59.317Z,495.00
2022-10-11T10:40:01.150Z,495.00
2022-10-11T10:40:59.311Z,494.00
2022-10-11T10:42:00.682Z,494.00
2022-10-11T10:43:00.332Z,492.00
2022-10-11T10:44:01.255Z,492.00
2022-10-11T10:44:59.935Z,491.00
2022-10-11T10:46:06.604Z,492.00
2022-10-11T10:47:02.177Z,491.00
2022-10-11T10:48:02.056Z,490.00
2022-10-11T10:49:34.507Z,489.00
2022-10-11T10:50:01.578Z,488.00
2022-10-11T10:51:00.699Z,488.00
2022-10-11T10:52:00.881Z,488.00
2022-10-11T10:53:01.653Z,488.00
2022-10-11T10:54:01.248Z,489.00
2022-10-11T10:55:03.027Z,489.00
2022-10-11T10:56:03.806Z,489.00
2022-10-11T10:57:03.111Z,489.00
2022-10-11T10:58:03.921Z,489.00
2022-10-11T10:59:03.801Z,491.00
2022-10-11T11:00:03.526Z,493.00
2022-10-11T11:01:04.796Z,492.00
2022-10-11T11:02:28.093Z,489.00
2022-10-11T11:03:04.158Z,488.00
2022-10-11T11:04:04.260Z,486.00
2022-10-11T11:05:02.668Z,486.00
2022-10-11T11:06:03.000Z,487.00
2022-10-11T11:07:02.946Z,489.00
2022-10-11T11:08:04.728Z,489.00
2022-10-11T11:09:03.217Z,487.00
2022-10-11T11:10:03.364Z,488.00
2022-10-11T11:11:07.199Z,487.00
2022-10-11T11:12:05.393Z,487.00
2022-10-11T11:13:05.718Z,485.00
2022-10-11T11:14:03.946Z,481.00
2022-10-11T11:15:10.326Z,482.00
2022-10-11T11:16:15.435Z,483.00
2022-10-11T11:17:07.071Z,484.00
2022-10-11T11:18:08.125Z,483.00
2022-10-11T11:19:10.305Z,484.00
2022-10-11T11:20:05.036Z,481.00
2022-10-11T11:21:05.642Z,480.00
2022-10-11T11:22:07.498Z,477.00
2022-10-11T11:23:13.805Z,479.00
2022-10-11T11:24:15.468Z,482.00
2022-10-11T11:25:11.515Z,487.00
2022-10-11T11:26:06.066Z,487.00
2022-10-11T11:27:05.813Z,486.00
2022-10-11T11:28:22.066Z,487.00
2022-10-11T11:29:06.998Z,486.00
2022-10-11T11:30:08.291Z,485.00
2022-10-11T11:31:08.487Z,485.00
2022-10-11T11:32:11.022Z,486.00
2022-10-11T11:33:07.218Z,488.00
2022-10-11T11:34:10.795Z,486.00
2022-10-11T11:35:09.620Z,486.00
2022-10-11T11:36:07.729Z,485.00
2022-10-11T11:37:10.074Z,485.00
2022-10-11T11:38:10.322Z,489.00
2022-10-11T11:39:08.931Z,492.00
2022-10-11T11:40:12.990Z,493.00
2022-10-11T11:41:08.061Z,491.00
2022-10-11T11:42:07.862Z,491.00
2022-10-11T11:43:10.945Z,490.00
2022-10-11T11:44:12.716Z,491.00
2022-10-11T11:45:10.457Z,492.00
2022-10-11T11:46:09.353Z,493.00
2022-10-11T11:47:15.312Z,492.00
2022-10-11T11:48:10.889Z,493.00
2022-10-11T11:49:12.863Z,498.00
2022-10-11T11:50:12.761Z,501.00
2022-10-11T11:51:09.283Z,502.00
2022-10-11T11:52:09.228Z,503.00
2022-10-11T11:53:24.843Z,506.00
2022-10-11T11:54:10.384Z,506.00
2022-10-11T11:55:16.924Z,505.00
2022-10-11T11:56:10.910Z,504.00
2022-10-11T11:57:11.712Z,501.00
2022-10-11T11:58:11.910Z,500.00
2022-10-11T11:59:11.038Z,500.00
2022-10-11T12:00:12.561Z,500.00
2022-10-11T12:01:11.379Z,499.00
2022-10-11T12:02:18.747Z,498.00
2022-10-11T12:03:22.873Z,498.00
2022-10-11T12:04:12.157Z,497.00
2022-10-11T12:05:12.742Z,496.00
2022-10-11T12:06:11.577Z,497.00
2022-10-11T12:07:16.203Z,496.00
2022-10-11T12:08:15.042Z,495.00
2022-10-11T12:09:12.088Z,496.00
2022-10-11T12:10:11.609Z,498.00
2022-10-11T12:11:39.809Z,500.00
2022-10-11T12:12:20.584Z,500.00
2022-10-11T12:13:22.861Z,499.00
2022-10-11T12:14:14.289Z,500.00
2022-10-11T12:15:14.721Z,501.00
2022-10-11T12:16:14.869Z,503.00
2022-10-11T12:17:21.384Z,501.00
2022-10-11T12:18:14.763Z,503.00
2022-10-11T12:19:14.480Z,503.00
2022-10-11T12:20:14.019Z,503.00
2022-10-11T12:21:15.431Z,503.00
2022-10-11T12:22:14.350Z,502.00
2022-10-11T12:23:19.726Z,503.00
2022-10-11T12:24:15.463Z,503.00
2022-10-11T12:25:18.342Z,502.00
2022-10-11T12:26:14.742Z,501.00
2022-10-11T12:27:13.987Z,501.00
2022-10-11T12:28:17.209Z,498.00
2022-10-11T12:29:16.131Z,495.00
2022-10-11T12:30:14.408Z,491.00
2022-10-11T12:31:14.627Z,493.00
2022-10-11T12:32:15.664Z,493.00
2022-10-11T12:33:18.344Z,497.00
2022-10-11T12:34:15.930Z,500.00
2022-10-11T12:35:16.287Z,504.00
2022-10-11T12:36:15.625Z,506.00
2022-10-11T12:37:15.347Z,507.00
2022-10-11T12:38:17.155Z,507.00
2022-10-11T12:39:15.559Z,504.00
2022-10-11T12:40:15.688Z,499.00
2022-10-11T12:41:15.856Z,496.00
2022-10-11T12:42:16.925Z,495.00
2022-10-11T12:43:19.235Z,495.00
2022-10-11T12:44:18.547Z,497.00
2022-10-11T12:45:16.397Z,498.00
2022-10-11T12:46:18.111Z,499.00
2022-10-11T12:47:19.469Z,499.00
2022-10-11T12:48:17.823Z,499.00
2022-10-11T12:49:18.629Z,498.00
2022-10-11T12:50:19.344Z,495.00
2022-10-11T12:51:18.583Z,494.00
2022-10-11T12:52:19.863Z,495.00
2022-10-11T12:53:18.744Z,493.00
2022-10-11T12:54:27.414Z,494.00
2022-10-11T12:55:18.822Z,492.00
2022-10-11T12:56:20.924Z,493.00
2022-10-11T12:57:19.154Z,495.00
2022-10-11T12:58:19.473Z,495.00
2022-10-11T12:59:19.418Z,496.00
2022-10-11T13:00:18.518Z,495.00
2022-10-11T13:01:18.803Z,495.00
2022-10-11T13:02:22.016Z,494.00
2022-10-11T13:03:19.960Z,496.00
2022-10-11T13:04:19.111Z,496.00
2022-10-11T13:05:21.208Z,496.00
2022-10-11T13:06:20.514Z,497.00
2022-10-11T13:07:19.498Z,494.00
2022-10-11T13:08:19.583Z,493.00
2022-10-11T13:09:20.228Z,494.00
2022-10-11T13:10:19.930Z,494.00
2022-10-11T13:11:20.063Z,494.00
2022-10-11T13:12:20.134Z,493.00
2022-10-11T13:13:20.266Z,493.00
2022-10-11T13:14:22.063Z,492.00
2022-10-11T13:15:20.540Z,494.00
2022-10-11T13:16:20.733Z,491.00
2022-10-11T13:17:20.831Z,491.00
2022-10-11T13:18:22.669Z,492.00
2022-10-11T13:19:22.909Z,493.00
2022-10-11T13:20:21.251Z,493.00
2022-10-11T13:21:23.201Z,494.00
2022-10-11T13:22:23.110Z,493.00
2022-10-11T13:23:21.755Z,493.00
2022-10-11T13:24:23.444Z,494.00
2022-10-11T13:25:21.866Z,494.00
2022-10-11T13:26:22.048Z,492.00
2022-10-11T13:27:22.298Z,491.00
2022-10-11T13:28:24.077Z,488.00
2022-10-11T13:29:22.471Z,485.00
2022-10-11T13:30:24.246Z,485.00
2022-10-11T13:31:22.744Z,487.00
2022-10-11T13:32:24.874Z,488.00
2022-10-11T13:33:24.664Z,490.00
2022-10-11T13:34:23.585Z,492.00
2022-10-11T13:35:24.913Z,492.00
2022-10-11T13:36:25.181Z,492.00
2022-10-11T13:37:26.628Z,494.00
2022-10-11T13:38:23.855Z,496.00
2022-10-11T13:39:28.400Z,498.00
2022-10-11T13:40:26.732Z,496.00
2022-10-11T13:41:24.119Z,495.00
2022-10-11T13:42:26.249Z,495.00
2022-10-11T13:43:25.158Z,495.00
2022-10-11T13:44:32.506Z,495.00
2022-10-11T13:45:27.658Z,495.00
2022-10-11T13:46:26.942Z,498.00
2022-10-11T13:47:40.773Z,499.00
2022-10-11T13:48:30.756Z,500.00
2022-10-11T13:49:26.211Z,499.00
2022-10-11T13:50:25.966Z,498.00
2022-10-11T13:51:28.616Z,497.00
2022-10-11T13:52:25.542Z,497.00
2022-10-11T13:53:26.545Z,497.00
2022-10-11T13:54:25.835Z,495.00
2022-10-11T13:55:28.518Z,495.00
2022-10-11T13:56:26.108Z,495.00
2022-10-11T13:57:26.320Z,495.00
2022-10-11T13:58:26.389Z,494.00
2022-10-11T13:59:26.664Z,493.00
2022-10-11T14:00:29.176Z,491.00
2022-10-11T14:01:27.827Z,491.00
2022-10-11T14:02:26.877Z,491.00
2022-10-11T14:03:29.548Z,491.00
2022-10-11T14:04:30.062Z,491.00
2022-10-11T14:05:27.239Z,493.00
2022-10-11T14:06:27.407Z,491.00
2022-10-11T14:07:27.518Z,488.00
2022-10-11T14:08:29.270Z,489.00
2022-10-11T14:09:29.488Z,487.00
2022-10-11T14:10:27.905Z,487.00
2022-10-11T14:11:29.633Z,486.00
2022-10-11T14:12:28.223Z,486.00
2022-10-11T14:13:28.395Z,484.00
2022-10-11T14:14:28.524Z,481.00
2022-10-11T14:15:28.669Z,482.00
2022-10-11T14:16:30.394Z,484.00
2022-10-11T14:17:28.986Z,484.00
2022-10-11T14:18:29.134Z,483.00
2022-10-11T14:19:29.326Z,484.00
2022-10-11T14:20:33.299Z,484.00
2022-10-11T14:21:31.264Z,481.00
2022-10-11T14:22:31.493Z,481.00
2022-10-11T14:23:30.743Z,483.00
2022-10-11T14:24:30.033Z,483.00
2022-10-11T14:25:31.054Z,486.00
2022-10-11T14:26:31.248Z,486.00
2022-10-11T14:27:31.974Z,484.00
2022-10-11T14:28:31.335Z,483.00
2022-10-11T14:29:30.673Z,483.00
2022-10-11T14:30:30.813Z,482.00
2022-10-11T14:31:30.953Z,484.00
2022-10-11T14:32:32.684Z,484.00
2022-10-11T14:33:31.213Z,483.00
2022-10-11T14:34:31.373Z,484.00
2022-10-11T14:35:31.516Z,483.00
2022-10-11T14:36:31.673Z,484.00
2022-10-11T14:37:32.901Z,482.00
2022-10-11T14:38:32.011Z,483.00
2022-10-11T14:39:33.152Z,486.00
2022-10-11T14:40:33.871Z,487.00
2022-10-11T14:41:32.405Z,487.00
2022-10-11T14:42:33.491Z,487.00
2022-10-11T14:43:32.612Z,486.00
2022-10-11T14:44:32.821Z,485.00
2022-10-11T14:45:34.514Z,484.00
2022-10-11T14:46:33.038Z,484.00
2022-10-11T14:47:37.330Z,482.00
2022-10-11T14:48:54.208Z,480.00
2022-10-11T14:49:34.501Z,479.00
2022-10-11T14:50:33.664Z,478.00
2022-10-11T14:51:33.824Z,475.00
2022-10-11T14:52:35.540Z,476.00
2022-10-11T14:53:38.628Z,479.00
2022-10-11T14:54:35.234Z,477.00
2022-10-11T14:55:35.402Z,478.00
2022-10-11T14:56:35.497Z,477.00
2022-10-11T14:57:36.286Z,476.00
2022-10-11T14:58:36.023Z,477.00
2022-10-11T14:59:35.928Z,476.00
2022-10-11T15:00:35.166Z,476.00
2022-10-11T15:01:36.400Z,474.00
2022-10-11T15:02:36.459Z,474.00
2022-10-11T15:03:37.179Z,474.00
2022-10-11T15:04:36.691Z,472.00
2022-10-11T15:05:36.838Z,471.00
2022-10-11T15:06:35.970Z,472.00
2022-10-11T15:07:36.165Z,470.00
2022-10-11T15:08:37.879Z,471.00
2022-10-11T15:09:36.426Z,470.00
2022-10-11T15:10:36.578Z,471.00
2022-10-11T15:11:38.299Z,471.00
2022-10-11T15:12:37.828Z,472.00
2022-10-11T15:13:38.563Z,472.00
2022-10-11T15:14:37.104Z,473.00
2022-10-11T15:15:37.203Z,472.00
2022-10-11T15:16:38.919Z,471.00
2022-10-11T15:17:37.446Z,472.00
2022-10-11T15:18:38.680Z,473.00
2022-10-11T15:19:37.759Z,474.00
2022-10-11T15:20:39.037Z,476.00
2022-10-11T15:21:38.087Z,476.00
2022-10-11T15:22:38.249Z,478.00
2022-10-11T15:23:38.368Z,478.00
2022-10-11T15:24:38.491Z,478.00
2022-10-11T15:25:41.176Z,478.00
2022-10-11T15:26:39.827Z,479.00
2022-10-11T15:27:38.956Z,480.00
2022-10-11T15:28:39.069Z,478.00
2022-10-11T15:29:39.126Z,475.00
2022-10-11T15:30:41.640Z,473.00
2022-10-11T15:31:41.971Z,473.00
2022-10-11T15:32:40.536Z,473.00
2022-10-11T15:33:39.676Z,472.00
2022-10-11T15:34:41.395Z,470.00
2022-10-11T15:35:39.981Z,470.00
2022-10-11T15:36:40.148Z,472.00
2022-10-11T15:37:41.375Z,474.00
2022-10-11T15:38:41.468Z,474.00
2022-10-11T15:39:40.610Z,477.00
2022-10-11T15:40:41.766Z,478.00
2022-10-11T15:41:42.006Z,477.00
2022-10-11T15:42:42.034Z,476.00
2022-10-11T15:43:41.187Z,476.00
2022-10-11T15:44:41.335Z,479.00
2022-10-11T15:45:43.059Z,481.00
2022-10-11T15:46:42.650Z,481.00
2022-10-11T15:47:42.873Z,481.00
2022-10-11T15:48:41.954Z,478.00
2022-10-11T15:49:42.045Z,478.00
2022-10-11T15:50:42.194Z,478.00
2022-10-11T15:51:42.334Z,480.00
2022-10-11T15:52:44.090Z,481.00
2022-10-11T15:53:42.603Z,479.00
2022-10-11T15:54:42.773Z,479.00
2022-10-11T15:55:44.496Z,479.00
2022-10-11T15:56:44.733Z,478.00
2022-10-11T15:57:43.223Z,481.00
2022-10-11T15:58:44.445Z,483.00
2022-10-11T15:59:45.174Z,484.00
2022-10-11T16:00:45.683Z,484.00
2022-10-11T16:12:03.095Z,521.00
2022-10-11T16:13:04.197Z,494.00
2022-10-11T16:14:04.914Z,497.00
2022-10-11T16:15:05.145Z,495.00
2022-10-11T16:16:03.845Z,493.00
2022-10-11T16:17:06.296Z,489.00
2022-10-11T16:18:04.803Z,491.00
2022-10-11T16:19:05.516Z,490.00
2022-10-11T16:20:04.078Z,488.00
2022-10-11T16:21:05.934Z,488.00
2022-10-11T16:22:05.994Z,487.00
2022-10-11T16:23:05.752Z,487.00
2022-10-11T16:24:05.603Z,488.00
2022-10-11T16:25:05.687Z,488.00
2022-10-11T16:26:06.825Z,488.00
2022-10-11T16:27:05.072Z,487.00
2022-10-11T16:28:06.795Z,488.00
2022-10-11T16:29:05.265Z,487.00
2022-10-11T16:30:05.474Z,485.00
2022-10-11T16:31:07.667Z,484.00
2022-10-11T16:32:05.716Z,483.00
2022-10-11T16:33:08.927Z,484.00
2022-10-11T16:34:05.965Z,482.00
2022-10-11T16:35:06.126Z,483.00
2022-10-11T16:36:08.359Z,484.00
2022-10-11T16:37:06.433Z,483.00
2022-10-11T16:38:08.143Z,481.00
2022-10-11T16:39:06.684Z,481.00
2022-10-11T16:40:06.864Z,480.00
2022-10-11T16:41:06.946Z,478.00
2022-10-11T16:42:07.111Z,479.00
2022-10-11T16:43:08.881Z,480.00
2022-10-11T16:44:08.573Z,479.00
2022-10-11T16:45:07.461Z,477.00
2022-10-11T16:46:09.048Z,477.00
2022-10-11T16:47:07.745Z,478.00
2022-10-11T16:48:09.489Z,479.00
2022-10-11T16:49:09.026Z,481.00